Time;durP1;ratioP1;P1;durP2;ratioP2;P2;SDS_P1;SDS_P2;PMS_P1;PMS_P2;Temp;Humidity;BMP_temperature;BMP_pressure;BME280_temperature;BME280_humidity;BME280_pressure;Samples;Min_cycle;Max_cycle;Signal;HPM_P1;HPM_P2
2023/01/13 00:01:14;;;;;;;3.63;0.70;;;9.40;99.90;;;;;;5088683;28;20036;-62
2023/01/13 00:03:40;;;;;;;4.65;0.63;;;9.40;99.90;;;;;;5075185;28;20044;-62
2023/01/13 00:06:07;;;;;;;2.08;0.50;;;9.40;99.90;;;;;;5087362;28;20471;-62
2023/01/13 00:08:33;;;;;;;4.43;0.52;;;9.40;99.90;;;;;;5080101;28;20463;-61
2023/01/13 00:10:59;;;;;;;3.20;0.40;;;9.30;99.90;;;;;;5076449;28;20121;-61
2023/01/13 00:13:27;;;;;;;4.05;0.95;;;9.30;99.90;;;;;;5080793;28;20056;-62
2023/01/13 00:15:56;;;;;;;3.05;0.70;;;9.40;99.90;;;;;;5087036;28;20102;-62
2023/01/13 00:18:22;;;;;;;2.95;0.57;;;9.40;99.90;;;;;;5078225;28;20034;-61
2023/01/13 00:20:57;;;;;;;1.50;0.45;;;9.40;99.90;;;;;;5086580;28;20024;-61
2023/01/13 00:23:23;;;;;;;4.00;0.50;;;9.40;99.90;;;;;;5084663;28;20465;-61
2023/01/13 00:25:49;;;;;;;2.22;0.55;;;9.40;99.90;;;;;;5086963;28;20024;-63
2023/01/13 00:28:14;;;;;;;2.05;0.50;;;9.40;99.90;;;;;;5082708;28;20056;-62
2023/01/13 00:30:40;;;;;;;3.58;0.68;;;9.50;99.90;;;;;;5091217;28;20059;-63
2023/01/13 00:33:06;;;;;;;1.90;0.50;;;9.50;99.90;;;;;;5066991;28;20054;-62
2023/01/13 00:35:31;;;;;;;1.73;0.50;;;9.50;99.90;;;;;;5088948;28;20031;-62
2023/01/13 00:37:57;;;;;;;2.90;0.30;;;9.50;99.90;;;;;;5058310;28;20075;-61
2023/01/13 00:40:22;;;;;;;2.45;0.40;;;9.40;99.90;;;;;;5084927;28;21420;-61
2023/01/13 00:45:32;;;;;;;1.63;0.60;;;9.40;99.90;;;;;;5079781;28;20171;-62
2023/01/13 00:47:57;;;;;;;1.83;0.50;;;9.40;99.90;;;;;;5088586;28;20035;-63
2023/01/13 00:50:23;;;;;;;1.48;0.40;;;9.50;99.90;;;;;;5094616;28;20039;-63
2023/01/13 00:52:49;;;;;;;0.70;0.20;;;9.50;99.90;;;;;;5081758;28;20055;-62
2023/01/13 00:55:14;;;;;;;2.40;0.77;;;9.50;99.90;;;;;;5085589;28;20028;-62
2023/01/13 00:57:40;;;;;;;5.65;0.60;;;9.50;99.90;;;;;;5088350;28;20602;-62
2023/01/13 01:00:06;;;;;;;2.05;0.40;;;9.50;99.90;;;;;;5088053;28;20028;-62
2023/01/13 01:02:32;;;;;;;2.88;0.35;;;9.50;99.90;;;;;;5080156;28;20036;-61
2023/01/13 01:04:58;;;;;;;2.67;0.52;;;9.60;99.90;;;;;;5090589;28;20573;-62
2023/01/13 01:07:24;;;;;;;2.65;0.40;;;9.60;99.90;;;;;;5079077;28;20115;-63
2023/01/13 01:09:50;;;;;;;3.85;0.45;;;9.60;99.90;;;;;;5088962;28;20466;-62
2023/01/13 01:12:15;;;;;;;0.82;0.20;;;9.70;99.90;;;;;;5088330;28;20054;-63
2023/01/13 01:14:41;;;;;;;2.50;0.60;;;9.70;99.90;;;;;;5075392;28;20025;-62
2023/01/13 01:17:06;;;;;;;5.75;0.55;;;9.60;99.90;;;;;;5090115;28;20089;-63
2023/01/13 01:19:36;;;;;;;3.30;0.40;;;9.60;99.90;;;;;;5084304;28;20406;-61
2023/01/13 01:22:01;;;;;;;5.07;0.50;;;9.60;99.90;;;;;;5075776;28;20046;-63
2023/01/13 01:24:27;;;;;;;3.08;0.60;;;9.60;99.90;;;;;;5094451;28;20099;-63
2023/01/13 01:26:53;;;;;;;6.05;0.60;;;9.60;99.90;;;;;;5067430;28;20057;-62
2023/01/13 01:29:18;;;;;;;2.65;0.40;;;9.60;99.90;;;;;;5079901;28;20036;-62
2023/01/13 01:31:45;;;;;;;1.42;0.45;;;9.60;99.90;;;;;;5086814;28;20125;-62
2023/01/13 01:34:11;;;;;;;3.90;0.50;;;9.70;99.90;;;;;;5088817;28;20052;-62
2023/01/13 01:36:37;;;;;;;1.70;0.50;;;9.60;99.90;;;;;;5090165;28;20035;-62
2023/01/13 01:39:03;;;;;;;2.88;0.60;;;9.60;99.90;;;;;;5087133;28;20020;-63
2023/01/13 01:41:32;;;;;;;2.08;0.40;;;9.70;99.90;;;;;;5091824;28;20040;-62
2023/01/13 01:44:01;;;;;;;3.03;0.40;;;9.70;99.90;;;;;;5090936;28;20119;-62
2023/01/13 01:46:39;;;;;;;3.22;0.45;;;9.70;99.90;;;;;;5082192;28;20055;-62
2023/01/13 01:49:22;;;;;;;4.68;0.50;;;9.70;99.90;;;;;;5079909;28;20034;-63
2023/01/13 01:51:58;;;;;;;2.45;0.38;;;9.70;99.90;;;;;;5094449;28;20032;-63
2023/01/13 01:54:33;;;;;;;1.75;0.35;;;9.60;99.90;;;;;;5086126;28;20443;-61
2023/01/13 01:56:59;;;;;;;1.10;0.30;;;9.60;99.90;;;;;;5085508;28;20084;-63
2023/01/13 01:59:26;;;;;;;5.45;0.38;;;9.60;99.90;;;;;;5080712;28;20119;-63
2023/01/13 02:01:52;;;;;;;1.75;0.30;;;9.60;99.90;;;;;;5083637;28;20048;-63
2023/01/13 02:04:24;;;;;;;2.60;0.50;;;9.70;99.90;;;;;;5078835;28;20035;-63
2023/01/13 02:06:52;;;;;;;3.72;0.30;;;9.70;99.90;;;;;;5083957;28;20031;-61
2023/01/13 02:09:18;;;;;;;1.58;0.30;;;9.70;99.90;;;;;;5070581;28;20503;-63
2023/01/13 02:14:29;;;;;;;1.63;0.20;;;9.70;99.90;;;;;;5085182;28;20038;-63
2023/01/13 02:17:29;;;;;;;5.45;0.38;;;9.80;99.90;;;;;;5083075;28;20028;-63
2023/01/13 02:20:32;;;;;;;4.57;0.40;;;9.80;99.90;;;;;;5039469;28;20468;-63
2023/01/13 02:26:46;;;;;;;2.50;0.25;;;9.80;99.90;;;;;;5085169;28;20042;-63
2023/01/13 02:32:36;;;;;;;1.80;0.40;;;9.70;99.90;;;;;;5068345;28;20043;-63
2023/01/13 02:35:13;;;;;;;1.02;0.30;;;9.60;99.90;;;;;;5078744;28;20052;-64
2023/01/13 02:37:42;;;;;;;3.22;0.50;;;9.50;99.90;;;;;;5072974;28;20038;-62
2023/01/13 02:40:23;;;;;;;2.58;0.50;;;9.50;99.90;;;;;;5085824;28;20016;-63
2023/01/13 02:46:03;;;;;;;2.35;0.32;;;9.50;99.90;;;;;;5086941;28;20039;-63
2023/01/13 02:48:30;;;;;;;1.30;0.40;;;9.50;99.90;;;;;;5076910;28;20032;-63
2023/01/13 02:51:01;;;;;;;1.35;0.50;;;9.50;99.90;;;;;;5079443;28;20036;-61
2023/01/13 02:53:30;;;;;;;;;;;9.60;99.90;;;;;;5084319;28;21003;-60
2023/01/13 02:55:58;;;;;;;3.58;0.50;;;9.60;99.90;;;;;;5070268;28;19908;-62
2023/01/13 02:58:27;;;;;;;3.35;0.45;;;9.70;99.90;;;;;;5081996;28;20043;-63
2023/01/13 03:00:54;;;;;;;1.90;0.40;;;9.70;99.90;;;;;;5083151;28;21548;-62
2023/01/13 03:03:19;;;;;;;3.00;0.30;;;9.70;99.90;;;;;;5086652;28;20036;-63
2023/01/13 03:05:48;;;;;;;4.18;0.40;;;9.70;99.90;;;;;;5085139;28;20029;-62
2023/01/13 03:08:38;;;;;;;1.67;0.35;;;9.70;99.90;;;;;;5086299;28;20028;-62
2023/01/13 03:11:13;;;;;;;0.80;0.20;;;9.80;99.90;;;;;;5082805;28;20362;-62
2023/01/13 03:13:46;;;;;;;2.10;0.38;;;9.70;99.90;;;;;;5084141;28;20739;-61
2023/01/13 03:16:18;;;;;;;3.42;0.38;;;9.70;99.90;;;;;;5085986;28;20059;-62
2023/01/13 03:18:47;;;;;;;3.25;0.40;;;9.60;99.90;;;;;;5087441;28;20507;-61
2023/01/13 03:21:23;;;;;;;2.60;0.65;;;9.60;99.90;;;;;;5085629;28;20059;-62
2023/01/13 03:23:54;;;;;;;2.25;0.30;;;9.60;99.90;;;;;;5060020;28;20421;-63
2023/01/13 03:26:47;;;;;;;3.15;1.17;;;9.60;99.90;;;;;;5075456;28;20066;-63
2023/01/13 03:29:31;;;;;;;2.17;0.68;;;9.60;99.90;;;;;;5080765;28;20090;-63
2023/01/13 03:32:26;;;;;;;2.45;0.50;;;9.60;99.90;;;;;;5083287;28;20043;-63
2023/01/13 03:34:58;;;;;;;1.63;0.30;;;9.60;99.90;;;;;;5070330;28;20027;-61
2023/01/13 03:37:29;;;;;;;1.70;0.38;;;9.50;99.90;;;;;;5060986;28;20028;-62
2023/01/13 03:40:02;;;;;;;4.63;0.60;;;9.60;99.90;;;;;;5079073;28;20107;-62
2023/01/13 03:42:32;;;;;;;1.20;0.50;;;9.60;99.90;;;;;;5078825;28;20028;-63
2023/01/13 03:45:11;;;;;;;1.75;0.43;;;9.60;99.90;;;;;;5079506;28;20024;-61
2023/01/13 03:47:52;;;;;;;0.73;0.30;;;9.60;99.90;;;;;;5085019;28;20032;-62
2023/01/13 03:50:27;;;;;;;4.03;0.40;;;9.60;99.90;;;;;;5079631;28;20024;-63
2023/01/13 03:53:01;;;;;;;4.35;0.50;;;9.60;99.90;;;;;;5075621;28;20038;-63
2023/01/13 03:55:34;;;;;;;5.68;0.30;;;9.70;99.90;;;;;;5082434;28;20043;-62
2023/01/13 03:58:05;;;;;;;2.35;0.40;;;9.60;99.90;;;;;;5084166;28;20104;-62
2023/01/13 04:00:36;;;;;;;1.88;0.30;;;9.60;99.90;;;;;;5081929;28;20051;-62
2023/01/13 04:03:10;;;;;;;6.18;0.70;;;9.60;99.90;;;;;;5083343;28;20043;-61
2023/01/13 04:05:40;;;;;;;2.50;0.50;;;9.60;99.90;;;;;;5085112;28;20032;-61
2023/01/13 04:08:23;;;;;;;3.38;0.68;;;9.60;99.90;;;;;;5082419;28;20040;-63
2023/01/13 04:10:58;;;;;;;3.63;0.70;;;9.60;99.90;;;;;;5083069;28;20480;-62
2023/01/13 04:13:29;;;;;;;3.00;0.38;;;9.60;99.90;;;;;;5090131;28;20392;-63
2023/01/13 04:15:54;;;;;;;2.10;0.47;;;9.60;99.90;;;;;;5086046;28;20107;-62
2023/01/13 04:18:29;;;;;;;3.03;0.40;;;9.70;99.90;;;;;;5082880;28;20185;-63
2023/01/13 04:20:57;;;;;;;4.70;0.43;;;9.60;99.90;;;;;;5089206;28;20051;-64
2023/01/13 04:23:23;;;;;;;0.68;0.30;;;9.60;99.90;;;;;;5079695;28;20039;-62
2023/01/13 04:25:49;;;;;;;1.27;0.35;;;9.60;99.90;;;;;;5083079;28;20036;-63
2023/01/13 04:28:16;;;;;;;3.45;0.30;;;9.60;99.90;;;;;;5074080;28;20056;-60
2023/01/13 04:30:42;;;;;;;4.35;0.50;;;9.60;99.90;;;;;;5075947;28;20109;-63
2023/01/13 04:33:09;;;;;;;2.40;0.30;;;9.60;99.90;;;;;;5079176;28;20032;-63
2023/01/13 04:35:35;;;;;;;3.45;0.30;;;9.60;99.90;;;;;;5085412;28;20123;-62
2023/01/13 04:38:03;;;;;;;5.63;0.50;;;9.60;99.90;;;;;;5078149;28;20028;-63
2023/01/13 04:40:29;;;;;;;4.57;0.38;;;9.60;99.90;;;;;;5088909;28;20635;-61
2023/01/13 04:42:54;;;;;;;3.50;0.20;;;9.60;99.90;;;;;;5075225;28;20039;-62
2023/01/13 04:45:20;;;;;;;1.50;0.30;;;9.60;99.90;;;;;;5072435;28;20059;-61
2023/01/13 04:47:47;;;;;;;2.20;0.40;;;9.60;99.90;;;;;;5087145;28;20200;-62
2023/01/13 04:50:13;;;;;;;3.80;0.50;;;9.60;99.90;;;;;;5082988;28;20089;-60
2023/01/13 04:52:38;;;;;;;6.30;0.30;;;9.60;99.90;;;;;;5073885;28;20028;-62
2023/01/13 04:55:05;;;;;;;0.65;0.30;;;9.60;99.90;;;;;;5072828;28;20056;-62
2023/01/13 04:57:32;;;;;;;1.38;0.30;;;9.70;99.90;;;;;;5084408;28;20029;-62
2023/01/13 04:59:57;;;;;;;2.28;0.50;;;9.70;99.90;;;;;;5084036;28;20092;-62
2023/01/13 05:02:23;;;;;;;1.65;0.32;;;9.70;99.90;;;;;;5074034;28;20122;-62
2023/01/13 05:04:49;;;;;;;1.98;0.40;;;9.70;99.90;;;;;;5083938;28;20469;-62
2023/01/13 05:07:16;;;;;;;2.22;0.30;;;9.70;99.90;;;;;;5080036;28;20028;-63
2023/01/13 05:09:41;;;;;;;2.33;0.30;;;9.70;99.90;;;;;;5089587;28;20073;-62
2023/01/13 05:17:37;;;;;;;0.85;0.30;;;9.70;99.90;;;;;;5078073;28;20082;-62
2023/01/13 05:20:04;;;;;;;1.70;0.30;;;9.70;99.90;;;;;;5082517;28;20377;-61
2023/01/13 05:25:27;;;;;;;1.73;0.30;;;9.70;99.90;;;;;;5080654;28;20115;-61
2023/01/13 05:27:59;;;;;;;1.52;0.30;;;9.70;99.90;;;;;;5089792;28;20493;-62
2023/01/13 05:30:28;;;;;;;0.63;0.30;;;9.70;99.90;;;;;;5101199;28;20046;-63
2023/01/13 05:32:54;;;;;;;3.92;0.40;;;9.70;99.90;;;;;;5062527;28;20124;-63
2023/01/13 05:35:20;;;;;;;2.67;0.40;;;9.70;99.90;;;;;;5055809;28;20784;-62
2023/01/13 05:37:46;;;;;;;1.33;0.30;;;9.70;99.90;;;;;;5082821;28;20020;-61
2023/01/13 05:45:51;;;;;;;1.73;0.60;;;9.70;99.90;;;;;;5082497;28;20047;-62
2023/01/13 05:48:19;;;;;;;3.00;0.20;;;9.80;99.90;;;;;;5072048;28;20064;-63
2023/01/13 05:50:46;;;;;;;2.58;0.50;;;9.80;99.90;;;;;;5080923;28;20698;-61
2023/01/13 05:53:12;;;;;;;1.27;0.30;;;9.70;99.90;;;;;;5083654;28;20040;-62
2023/01/13 05:55:39;;;;;;;1.65;0.47;;;9.80;99.90;;;;;;5069343;28;20054;-63
2023/01/13 05:58:06;;;;;;;1.58;0.30;;;9.70;99.90;;;;;;5089079;28;20040;-61
2023/01/13 06:00:32;;;;;;;2.03;0.45;;;9.70;99.90;;;;;;5086812;28;20028;-63
2023/01/13 06:02:58;;;;;;;2.38;0.52;;;9.70;99.90;;;;;;5081360;28;20024;-62
2023/01/13 06:05:23;;;;;;;1.48;0.30;;;9.70;99.90;;;;;;5088493;28;20101;-62
2023/01/13 06:07:49;;;;;;;1.65;0.30;;;9.60;99.90;;;;;;5079621;28;20035;-63
2023/01/13 06:10:16;;;;;;;1.50;0.35;;;9.70;99.90;;;;;;5087801;28;20051;-62
2023/01/13 06:12:41;;;;;;;1.38;0.40;;;9.70;99.90;;;;;;5071130;28;20028;-62
2023/01/13 06:15:07;;;;;;;1.95;0.40;;;9.70;99.90;;;;;;5089325;28;20082;-63
2023/01/13 06:17:33;;;;;;;3.15;0.40;;;9.60;99.90;;;;;;5088698;28;20124;-61
2023/01/13 06:19:59;;;;;;;2.13;0.40;;;9.60;99.90;;;;;;5087751;28;20031;-63
2023/01/13 06:22:29;;;;;;;2.30;0.52;;;9.60;99.90;;;;;;5089155;28;20039;-62
2023/01/13 06:24:55;;;;;;;;;;;9.60;99.90;;;;;;5083051;28;20449;-63
2023/01/13 06:27:21;;;;;;;2.22;0.40;;;9.60;99.90;;;;;;5063288;28;19955;-63
2023/01/13 06:29:48;;;;;;;1.33;0.32;;;9.60;99.90;;;;;;5084158;28;20035;-62
2023/01/13 06:32:17;;;;;;;1.83;0.40;;;9.60;99.90;;;;;;5076579;28;20044;-62
2023/01/13 06:34:50;;;;;;;3.35;0.38;;;9.50;99.90;;;;;;5085371;28;20024;-62
2023/01/13 06:37:20;;;;;;;1.00;0.20;;;9.60;99.90;;;;;;5085985;28;20060;-63
2023/01/13 06:39:46;;;;;;;0.77;0.22;;;9.70;99.90;;;;;;5089373;27;20077;-62
2023/01/13 06:44:56;;;;;;;0.22;0.22;;;9.70;99.90;;;;;;5076334;28;20119;-63
2023/01/13 06:47:22;;;;;;;1.80;0.38;;;9.70;99.90;;;;;;5080547;28;20107;-63
2023/01/13 06:49:48;;;;;;;1.90;0.40;;;9.70;99.90;;;;;;5086874;28;20143;-63
2023/01/13 06:52:14;;;;;;;1.42;0.22;;;9.60;99.90;;;;;;5081974;28;20051;-63
2023/01/13 06:54:39;;;;;;;1.02;0.30;;;9.60;99.90;;;;;;5080084;28;20499;-62
2023/01/13 06:57:05;;;;;;;0.85;0.25;;;9.60;99.90;;;;;;5085557;28;20181;-64
2023/01/13 06:59:33;;;;;;;0.65;0.28;;;9.60;99.90;;;;;;5065966;28;20117;-64
2023/01/13 07:02:00;;;;;;;2.28;0.30;;;9.60;99.90;;;;;;5086895;28;20035;-63
2023/01/13 07:04:25;;;;;;;1.55;0.20;;;9.60;99.90;;;;;;5078489;28;20024;-63
2023/01/13 07:06:51;;;;;;;4.22;0.43;;;9.60;99.90;;;;;;5085591;28;20031;-62
2023/01/13 07:09:16;;;;;;;1.40;0.50;;;9.60;99.90;;;;;;5090903;28;20139;-62
2023/01/13 07:11:42;;;;;;;2.15;0.30;;;9.60;99.90;;;;;;5080705;28;20059;-63
2023/01/13 07:17:09;;;;;;;3.00;0.30;;;9.50;99.90;;;;;;5009199;28;20034;-61
2023/01/13 07:19:34;;;;;;;1.05;0.40;;;9.50;99.90;;;;;;5064205;28;20042;-61
2023/01/13 07:22:00;;;;;;;3.22;0.63;;;9.50;99.90;;;;;;5077321;28;20098;-62
2023/01/13 07:24:26;;;;;;;0.50;0.20;;;9.50;99.90;;;;;;5085190;28;20043;-61
2023/01/13 07:26:51;;;;;;;0.93;0.10;;;9.50;99.90;;;;;;5079433;28;20032;-63
2023/01/13 07:29:17;;;;;;;0.43;0.20;;;9.40;99.90;;;;;;5075476;28;20043;-61
2023/01/13 07:31:43;;;;;;;2.65;0.30;;;9.40;99.90;;;;;;5085032;28;20103;-62
2023/01/13 07:34:09;;;;;;;0.85;0.20;;;9.50;99.90;;;;;;5077678;28;20028;-63
2023/01/13 07:36:35;;;;;;;3.08;0.40;;;9.40;99.90;;;;;;5076719;28;20052;-63
2023/01/13 07:39:01;;;;;;;0.75;0.22;;;9.50;99.90;;;;;;5076117;28;20024;-62
2023/01/13 07:44:11;;;;;;;0.75;0.17;;;9.50;99.90;;;;;;5085764;28;20034;-63
2023/01/13 07:46:37;;;;;;;0.65;0.30;;;9.50;99.90;;;;;;5084994;28;20107;-63
2023/01/13 07:49:04;;;;;;;1.95;0.20;;;9.50;99.90;;;;;;5087931;28;20024;-62
2023/01/13 07:51:30;;;;;;;0.45;0.20;;;9.60;99.90;;;;;;5087024;28;20032;-63
2023/01/13 07:53:56;;;;;;;2.65;0.43;;;9.50;99.90;;;;;;5064080;28;20050;-63
2023/01/13 07:56:22;;;;;;;0.50;0.20;;;9.60;99.90;;;;;;5090224;28;20932;-63
2023/01/13 07:58:49;;;;;;;0.47;0.28;;;9.50;99.90;;;;;;5078335;28;20051;-61
2023/01/13 08:01:16;;;;;;;0.93;0.20;;;9.60;99.90;;;;;;5085814;28;20078;-63
2023/01/13 08:03:43;;;;;;;2.47;0.30;;;9.60;99.90;;;;;;5084725;28;20236;-61
2023/01/13 08:06:10;;;;;;;0.57;0.20;;;9.60;99.90;;;;;;5069419;28;20043;-63
2023/01/13 08:08:37;;;;;;;0.82;0.20;;;9.60;99.90;;;;;;5085030;28;20449;-63
2023/01/13 08:11:04;;;;;;;0.80;0.30;;;9.60;99.90;;;;;;5075716;28;20032;-63
2023/01/13 08:13:30;;;;;;;1.08;0.28;;;9.60;99.90;;;;;;5079105;28;20054;-64
2023/01/13 08:16:04;;;;;;;0.68;0.20;;;9.70;99.90;;;;;;5081747;28;21685;-61
2023/01/13 08:18:31;;;;;;;0.77;0.30;;;9.70;99.90;;;;;;5084584;28;20051;-61
2023/01/13 08:21:01;;;;;;;0.93;0.20;;;9.70;99.90;;;;;;5084807;28;20032;-63
2023/01/13 08:23:27;;;;;;;;;;;9.60;99.90;;;;;;5072393;28;20032;-63
2023/01/13 08:25:53;;;;;;;0.77;0.20;;;9.70;99.90;;;;;;5083363;28;20497;-62
2023/01/13 08:28:18;;;;;;;0.85;0.30;;;9.70;99.90;;;;;;5080855;28;20052;-63
2023/01/13 08:30:44;;;;;;;0.63;0.17;;;9.70;99.90;;;;;;5086769;28;20032;-63
2023/01/13 08:33:11;;;;;;;0.43;0.20;;;9.80;99.90;;;;;;5089155;28;20051;-62
2023/01/13 08:35:38;;;;;;;0.32;0.10;;;9.80;99.90;;;;;;5091404;28;20571;-62
2023/01/13 08:38:05;;;;;;;0.75;0.20;;;9.90;99.90;;;;;;5091751;28;20111;-62
2023/01/13 08:40:31;;;;;;;2.83;0.20;;;9.90;99.90;;;;;;5091549;28;20427;-62
2023/01/13 08:42:58;;;;;;;0.88;0.20;;;9.90;99.90;;;;;;5090696;28;20818;-62
2023/01/13 08:45:24;;;;;;;0.73;0.20;;;9.90;99.90;;;;;;5091779;28;20072;-61
2023/01/13 08:47:49;;;;;;;0.47;0.17;;;10.00;99.90;;;;;;5079781;28;20031;-62
2023/01/13 08:50:16;;;;;;;0.60;0.10;;;10.10;99.90;;;;;;5091537;28;20031;-62
2023/01/13 08:52:41;;;;;;;1.55;0.32;;;10.00;99.90;;;;;;5090867;28;20028;-63
2023/01/13 08:55:08;;;;;;;1.80;0.20;;;10.00;99.90;;;;;;5091592;28;20393;-62
2023/01/13 08:57:33;;;;;;;0.60;0.20;;;10.00;99.90;;;;;;5091312;28;20028;-63
2023/01/13 08:59:59;;;;;;;0.50;0.20;;;9.90;99.90;;;;;;5090539;28;20039;-63
2023/01/13 09:02:25;;;;;;;0.77;0.10;;;10.00;99.90;;;;;;5091706;28;20469;-62
2023/01/13 09:04:51;;;;;;;1.20;0.25;;;10.00;99.90;;;;;;5090584;28;20031;-61
2023/01/13 09:07:17;;;;;;;0.30;0.10;;;10.00;99.90;;;;;;5091395;28;20040;-61
2023/01/13 09:09:43;;;;;;;1.27;0.20;;;10.10;99.90;;;;;;5090420;28;20042;-61
2023/01/13 09:14:58;;;;;;;1.48;0.17;;;10.10;99.90;;;;;;5090688;28;20027;-63
2023/01/13 09:17:23;;;;;;;0.65;0.10;;;10.00;99.90;;;;;;5093482;28;20037;-60
2023/01/13 09:19:49;;;;;;;1.40;0.22;;;9.90;99.90;;;;;;5087798;28;20032;-63
2023/01/13 09:22:16;;;;;;;0.45;0.20;;;9.70;99.90;;;;;;5087076;28;20039;-62
2023/01/13 09:24:43;;;;;;;0.43;0.22;;;9.50;99.90;;;;;;5082972;28;20028;-62
2023/01/13 09:27:10;;;;;;;0.60;0.20;;;9.30;99.90;;;;;;5074968;28;20185;-60
2023/01/13 09:29:36;;;;;;;2.22;0.30;;;9.20;99.90;;;;;;5081214;28;20051;-63
2023/01/13 09:32:02;;;;;;;0.40;0.20;;;9.20;99.90;;;;;;5086398;28;20028;-62
2023/01/13 09:37:12;;;;;;;0.60;0.30;;;9.10;99.90;;;;;;5089736;28;20043;-62
2023/01/13 09:39:38;;;;;;;0.15;0.10;;;9.00;99.90;;;;;;5088878;28;20016;-62
2023/01/13 09:45:07;;;;;;;0.93;0.43;;;9.00;99.90;;;;;;5081834;28;20495;-63
2023/01/13 09:47:42;;;;;;;0.77;0.20;;;9.00;99.90;;;;;;5089116;28;20358;-62
2023/01/13 09:50:14;;;;;;;0.28;0.10;;;8.90;99.90;;;;;;5080606;28;20052;-62
2023/01/13 09:52:42;;;;;;;1.52;0.98;;;8.70;99.90;;;;;;5084921;28;20105;-62
2023/01/13 09:55:23;;;;;;;0.50;0.03;;;8.40;99.90;;;;;;5080169;28;20512;-62
2023/01/13 09:57:49;;;;;;;0.77;0.08;;;8.10;99.90;;;;;;5086712;28;20157;-61
2023/01/13 10:00:27;;;;;;;1.17;0.10;;;8.00;99.90;;;;;;5080447;28;20119;-62
2023/01/13 10:02:53;;;;;;;0.20;0.05;;;7.80;99.90;;;;;;5087485;28;20067;-62
2023/01/13 10:05:37;;;;;;;0.13;0.03;;;7.70;99.90;;;;;;5083032;28;20113;-62
2023/01/13 10:08:32;;;;;;;0.22;0.10;;;7.70;99.90;;;;;;5076776;28;20036;-62
2023/01/13 10:14:18;;;;;;;0.20;0.10;;;7.70;99.90;;;;;;5077605;28;20059;-62
2023/01/13 10:16:54;;;;;;;0.85;0.00;;;7.60;99.90;;;;;;5087591;28;20140;-64
2023/01/13 10:19:31;;;;;;;1.58;0.20;;;7.70;99.90;;;;;;5088985;28;20393;-62
2023/01/13 10:22:20;;;;;;;3.40;0.35;;;7.70;99.90;;;;;;5078556;28;20040;-60
2023/01/13 10:24:58;;;;;;;4.07;0.30;;;7.70;99.90;;;;;;5063430;28;20475;-62
2023/01/13 10:27:36;;;;;;;2.72;0.40;;;7.70;99.90;;;;;;5076560;28;20071;-61
2023/01/13 10:30:19;;;;;;;3.00;0.50;;;7.70;99.90;;;;;;5078688;28;20642;-62
2023/01/13 10:32:53;;;;;;;1.05;0.40;;;7.70;99.90;;;;;;5078392;28;20493;-64
2023/01/13 10:35:58;;;;;;;2.22;0.50;;;7.70;99.90;;;;;;5084152;28;20112;-63
2023/01/13 10:38:25;;;;;;;2.97;0.50;;;7.70;99.90;;;;;;5077846;28;20085;-62
2023/01/13 10:40:51;;;;;;;5.00;0.60;;;7.70;99.90;;;;;;5086962;28;20103;-62
2023/01/13 10:43:17;;;;;;;2.28;0.40;;;7.70;99.90;;;;;;5087110;28;20447;-62
2023/01/13 10:45:54;;;;;;;2.88;0.28;;;7.70;99.90;;;;;;5086820;28;20457;-64
2023/01/13 10:48:20;;;;;;;4.72;0.60;;;7.60;99.90;;;;;;5089474;28;20032;-62
2023/01/13 10:50:47;;;;;;;2.33;0.60;;;7.60;99.90;;;;;;5083869;28;20426;-63
2023/01/13 10:53:23;;;;;;;1.20;0.55;;;7.60;99.90;;;;;;5094545;28;20044;-62
2023/01/13 10:56:01;;;;;;;1.38;0.50;;;7.60;99.90;;;;;;5075752;28;20064;-62
2023/01/13 10:58:27;;;;;;;1.60;0.30;;;7.50;99.90;;;;;;5082163;28;20064;-62
2023/01/13 11:01:02;;;;;;;3.53;0.57;;;7.50;99.90;;;;;;5085582;28;20044;-62
2023/01/13 11:03:40;;;;;;;1.23;0.30;;;7.50;99.90;;;;;;5075351;28;20078;-62
2023/01/13 11:06:06;;;;;;;2.25;0.20;;;7.40;99.90;;;;;;5082248;28;20044;-62
2023/01/13 11:08:48;;;;;;;1.15;0.30;;;7.40;99.90;;;;;;5086923;28;20118;-64
2023/01/13 11:11:42;;;;;;;2.50;0.15;;;7.30;99.90;;;;;;5078017;28;20032;-62
2023/01/13 11:14:40;;;;;;;2.30;0.40;;;7.30;99.90;;;;;;5086604;28;20032;-61
2023/01/13 11:17:12;;;;;;;4.07;0.47;;;7.30;99.90;;;;;;5086580;28;20093;-63
2023/01/13 11:19:46;;;;;;;1.90;0.45;;;7.30;99.90;;;;;;5080398;28;20043;-64
2023/01/13 11:22:44;;;;;;;3.90;0.43;;;7.40;99.90;;;;;;5082010;28;20743;-63
2023/01/13 11:25:30;;;;;;;1.95;0.40;;;7.40;99.90;;;;;;5084137;28;20032;-62
2023/01/13 11:28:05;;;;;;;3.47;0.55;;;7.50;99.90;;;;;;5083311;28;20047;-61
2023/01/13 11:30:49;;;;;;;2.95;0.40;;;7.40;99.90;;;;;;5084742;28;20032;-62
2023/01/13 11:33:15;;;;;;;1.58;0.60;;;7.40;99.90;;;;;;5087917;28;20043;-62
2023/01/13 11:35:46;;;;;;;5.45;0.68;;;7.50;99.90;;;;;;5084183;28;20032;-62
2023/01/13 11:38:34;;;;;;;6.43;0.88;;;7.50;99.90;;;;;;5092752;28;20027;-62
2023/01/13 11:41:17;;;;;;;3.42;0.63;;;7.50;99.90;;;;;;5086874;28;20051;-62
2023/01/13 11:43:51;;;;;;;2.85;0.50;;;7.60;99.90;;;;;;5082924;28;20035;-62
2023/01/13 11:46:18;;;;;;;2.10;0.40;;;7.60;99.90;;;;;;5082052;28;20024;-63
2023/01/13 11:48:44;;;;;;;3.90;0.50;;;7.50;99.90;;;;;;5077443;28;20024;-62
2023/01/13 11:51:12;;;;;;;5.30;0.50;;;7.60;99.90;;;;;;5075274;28;20112;-60
2023/01/13 11:53:41;;;;;;;6.57;0.73;;;7.50;99.90;;;;;;5084726;28;20468;-62
2023/01/13 11:56:12;;;;;;;2.63;0.30;;;7.40;99.90;;;;;;5063225;28;20715;-60
2023/01/13 11:59:15;;;;;;;4.20;0.45;;;7.40;99.90;;;;;;5083357;28;20476;-61
2023/01/13 12:01:50;;;;;;;3.30;0.70;;;7.40;99.90;;;;;;5080228;28;20535;-61
2023/01/13 12:04:44;;;;;;;2.53;0.38;;;7.40;99.90;;;;;;5086622;28;20116;-62
2023/01/13 12:07:39;;;;;;;4.93;0.50;;;7.40;99.90;;;;;;5081337;28;20878;-61
2023/01/13 12:10:16;;;;;;;3.83;0.82;;;7.30;99.90;;;;;;5071260;28;20034;-61
2023/01/13 12:13:07;;;;;;;5.30;0.40;;;7.30;99.90;;;;;;5085757;28;20037;-61
2023/01/13 12:15:41;;;;;;;;;;;7.20;99.90;;;;;;5080146;28;20491;-61
2023/01/13 12:18:14;;;;;;;4.45;0.85;;;7.20;99.90;;;;;;5080220;28;19911;-62
2023/01/13 12:20:50;;;;;;;5.72;0.65;;;7.30;99.90;;;;;;5086254;28;20039;-61
2023/01/13 12:23:37;;;;;;;6.88;0.63;;;7.20;99.90;;;;;;5082311;28;20020;-62
2023/01/13 12:26:10;;;;;;;4.25;0.60;;;7.10;99.90;;;;;;5091936;28;20381;-60
2023/01/13 12:28:42;;;;;;;5.70;0.63;;;7.10;99.90;;;;;;5082530;28;20044;-61
2023/01/13 12:31:08;;;;;;;6.80;0.55;;;7.00;99.90;;;;;;5086294;28;20059;-62
2023/01/13 12:34:08;;;;;;;3.65;0.50;;;7.00;99.90;;;;;;5062031;28;20024;-62
2023/01/13 12:37:06;;;;;;;1.73;0.40;;;7.00;99.90;;;;;;5082831;28;20035;-62
2023/01/13 12:39:46;;;;;;;4.22;0.80;;;7.00;99.90;;;;;;5083805;28;20126;-62
2023/01/13 12:45:29;;;;;;;4.63;0.80;;;7.00;99.90;;;;;;5052643;28;20157;-62
2023/01/13 12:47:56;;;;;;;;;;;7.00;99.90;;;;;;5079823;28;20110;-62
2023/01/13 12:50:24;;;;;;;5.90;0.60;;;7.00;99.90;;;;;;5076613;28;20448;-62
2023/01/13 12:52:55;;;;;;;6.45;0.65;;;7.00;99.90;;;;;;5092202;28;20062;-63
2023/01/13 12:55:32;;;;;;;5.65;0.63;;;7.10;99.90;;;;;;5087369;28;20040;-62
2023/01/13 12:58:01;;;;;;;6.10;0.57;;;7.10;99.90;;;;;;5078835;28;20101;-62
2023/01/13 13:00:59;;;;;;;4.43;0.40;;;7.10;99.90;;;;;;5067998;28;20081;-63
2023/01/13 13:03:29;;;;;;;1.65;0.35;;;7.00;99.90;;;;;;5078845;28;20304;-61
2023/01/13 13:06:33;;;;;;;3.08;0.50;;;6.90;99.90;;;;;;5068840;28;20036;-63
2023/01/13 13:09:22;;;;;;;1.15;0.43;;;6.80;99.90;;;;;;5047024;28;20091;-62
2023/01/13 13:14:38;;;;;;;5.57;0.55;;;6.80;99.90;;;;;;5087839;28;20043;-61
2023/01/13 13:17:24;;;;;;;;;;;6.80;99.90;;;;;;5081002;28;20111;-62
2023/01/13 13:19:50;;;;;;;1.95;0.30;;;6.90;99.90;;;;;;5096171;28;19981;-65
2023/01/13 13:22:25;;;;;;;1.60;0.20;;;6.90;99.90;;;;;;5095851;28;20085;-61
2023/01/13 13:24:50;;;;;;;1.90;0.30;;;6.80;99.90;;;;;;5090978;28;20066;-61
2023/01/13 13:27:39;;;;;;;2.17;0.30;;;6.80;99.90;;;;;;5090086;28;20044;-62
2023/01/13 13:30:24;;;;;;;2.28;0.40;;;6.90;99.90;;;;;;5083719;28;20032;-61
2023/01/13 13:33:14;;;;;;;1.45;0.40;;;6.90;99.90;;;;;;5111878;28;20555;-62
2023/01/13 13:35:54;;;;;;;3.42;0.70;;;6.90;99.90;;;;;;5111679;28;20396;-61
2023/01/13 13:47:19;;;;;;;1.58;0.30;;;7.00;99.90;;;;;;5085051;28;20590;-62
2023/01/13 13:49:52;;;;;;;5.13;0.47;;;6.90;99.90;;;;;;5090645;28;20370;-62
2023/01/13 13:52:21;;;;;;;5.50;0.70;;;7.20;99.90;;;;;;5089098;28;20046;-62
2023/01/13 13:54:54;;;;;;;3.85;0.63;;;7.40;99.90;;;;;;5090450;28;20035;-62
2023/01/13 13:57:29;;;;;;;1.13;0.40;;;7.60;99.90;;;;;;5089924;28;20028;-62
2023/01/13 13:59:57;;;;;;;2.28;0.55;;;7.60;99.90;;;;;;5089915;28;20115;-63
2023/01/13 14:02:28;;;;;;;0.80;0.30;;;7.50;99.90;;;;;;5090338;28;20097;-60
2023/01/13 14:05:16;;;;;;;1.95;0.50;;;7.50;99.90;;;;;;5089796;28;20039;-61
2023/01/13 14:07:47;;;;;;;1.95;0.50;;;7.30;99.90;;;;;;5093302;28;20133;-62
2023/01/13 14:10:27;;;;;;;2.42;0.40;;;7.20;99.90;;;;;;5081959;28;20042;-61
2023/01/13 14:12:53;;;;;;;2.30;0.30;;;7.20;99.90;;;;;;5089904;28;20036;-62
2023/01/13 14:15:31;;;;;;;0.93;0.35;;;7.40;99.90;;;;;;5088670;28;20032;-62
2023/01/13 14:18:00;;;;;;;4.90;0.70;;;7.40;99.90;;;;;;5089253;28;20032;-62
2023/01/13 14:20:27;;;;;;;2.10;0.60;;;7.60;99.90;;;;;;5090127;28;20024;-63
2023/01/13 14:22:54;;;;;;;6.10;0.75;;;7.70;99.90;;;;;;5089753;28;20028;-63